sensor_id;sensor_type;location;lat;lon;timestamp;temperature;humidity
6879;DHT22;3478;51.462;7.338;2023-07-09T00:00:54;25.30;62.30
6879;DHT22;3478;51.462;7.338;2023-07-09T00:05:57;25.30;62.20
6879;DHT22;3478;51.462;7.338;2023-07-09T00:11:00;25.30;63.00
6879;DHT22;3478;51.462;7.338;2023-07-09T00:16:07;25.20;63.50
6879;DHT22;3478;51.462;7.338;2023-07-09T00:21:12;25.10;64.00
6879;DHT22;3478;51.462;7.338;2023-07-09T00:26:16;25.00;64.30
6879;DHT22;3478;51.462;7.338;2023-07-09T00:31:21;25.00;64.70
6879;DHT22;3478;51.462;7.338;2023-07-09T00:36:27;24.90;65.10
6879;DHT22;3478;51.462;7.338;2023-07-09T00:41:32;24.90;65.30
6879;DHT22;3478;51.462;7.338;2023-07-09T00:52:28;24.90;66.10
6879;DHT22;3478;51.462;7.338;2023-07-09T00:57:37;24.80;66.60
6879;DHT22;3478;51.462;7.338;2023-07-09T01:02:45;24.70;66.90
6879;DHT22;3478;51.462;7.338;2023-07-09T01:07:48;24.70;67.50
6879;DHT22;3478;51.462;7.338;2023-07-09T01:12:52;24.60;68.70
6879;DHT22;3478;51.462;7.338;2023-07-09T01:17:54;24.50;69.10
6879;DHT22;3478;51.462;7.338;2023-07-09T01:22:57;24.40;70.10
6879;DHT22;3478;51.462;7.338;2023-07-09T01:28:01;24.30;70.50
6879;DHT22;3478;51.462;7.338;2023-07-09T01:33:03;24.40;70.10
6879;DHT22;3478;51.462;7.338;2023-07-09T01:38:08;24.50;70.20
6879;DHT22;3478;51.462;7.338;2023-07-09T01:43:10;24.50;70.30
6879;DHT22;3478;51.462;7.338;2023-07-09T01:48:12;24.60;70.50
6879;DHT22;3478;51.462;7.338;2023-07-09T01:53:19;24.50;70.90
6879;DHT22;3478;51.462;7.338;2023-07-09T01:58:23;24.50;71.40
6879;DHT22;3478;51.462;7.338;2023-07-09T02:03:25;24.40;73.10
6879;DHT22;3478;51.462;7.338;2023-07-09T02:08:28;24.10;74.40
6879;DHT22;3478;51.462;7.338;2023-07-09T02:13:30;23.90;76.10
6879;DHT22;3478;51.462;7.338;2023-07-09T02:18:32;23.80;77.20
6879;DHT22;3478;51.462;7.338;2023-07-09T02:23:35;23.80;77.80
6879;DHT22;3478;51.462;7.338;2023-07-09T02:28:37;23.70;78.70
6879;DHT22;3478;51.462;7.338;2023-07-09T02:33:39;23.70;79.70
6879;DHT22;3478;51.462;7.338;2023-07-09T02:38:42;23.60;81.20
6879;DHT22;3478;51.462;7.338;2023-07-09T02:43:44;23.50;82.10
6879;DHT22;3478;51.462;7.338;2023-07-09T02:48:46;23.50;82.80
6879;DHT22;3478;51.462;7.338;2023-07-09T02:53:49;23.40;83.20
6879;DHT22;3478;51.462;7.338;2023-07-09T02:58:51;23.40;83.90
6879;DHT22;3478;51.462;7.338;2023-07-09T03:03:53;23.40;84.20
6879;DHT22;3478;51.462;7.338;2023-07-09T03:08:56;23.40;84.50
6879;DHT22;3478;51.462;7.338;2023-07-09T03:13:59;23.50;84.90
6879;DHT22;3478;51.462;7.338;2023-07-09T03:19:01;23.60;85.50
6879;DHT22;3478;51.462;7.338;2023-07-09T03:24:06;23.50;86.20
6879;DHT22;3478;51.462;7.338;2023-07-09T03:29:08;23.40;87.50
6879;DHT22;3478;51.462;7.338;2023-07-09T03:34:10;23.30;88.70
6879;DHT22;3478;51.462;7.338;2023-07-09T03:39:13;23.30;89.60
6879;DHT22;3478;51.462;7.338;2023-07-09T03:44:15;23.40;90.10
6879;DHT22;3478;51.462;7.338;2023-07-09T03:49:17;23.40;90.40
6879;DHT22;3478;51.462;7.338;2023-07-09T03:54:20;23.30;91.20
6879;DHT22;3478;51.462;7.338;2023-07-09T03:59:22;23.20;91.50
6879;DHT22;3478;51.462;7.338;2023-07-09T04:04:24;23.20;92.30
6879;DHT22;3478;51.462;7.338;2023-07-09T04:09:27;23.10;92.90
6879;DHT22;3478;51.462;7.338;2023-07-09T04:14:29;23.10;93.10
6879;DHT22;3478;51.462;7.338;2023-07-09T04:19:31;23.10;93.80
6879;DHT22;3478;51.462;7.338;2023-07-09T04:24:34;23.10;94.30
6879;DHT22;3478;51.462;7.338;2023-07-09T04:29:36;23.10;94.80
6879;DHT22;3478;51.462;7.338;2023-07-09T04:34:39;23.10;95.00
6879;DHT22;3478;51.462;7.338;2023-07-09T04:39:42;23.10;94.80
6879;DHT22;3478;51.462;7.338;2023-07-09T04:44:45;23.20;95.50
6879;DHT22;3478;51.462;7.338;2023-07-09T04:49:47;23.30;95.10
6879;DHT22;3478;51.462;7.338;2023-07-09T04:54:50;23.40;95.30
6879;DHT22;3478;51.462;7.338;2023-07-09T04:59:52;23.40;95.90
6879;DHT22;3478;51.462;7.338;2023-07-09T05:04:54;23.60;97.30
6879;DHT22;3478;51.462;7.338;2023-07-09T05:09:57;23.60;98.00
6879;DHT22;3478;51.462;7.338;2023-07-09T05:14:59;23.70;99.30
6879;DHT22;3478;51.462;7.338;2023-07-09T05:20:01;23.80;99.50
6879;DHT22;3478;51.462;7.338;2023-07-09T05:25:04;23.90;99.50
6879;DHT22;3478;51.462;7.338;2023-07-09T05:30:07;24.00;99.30
6879;DHT22;3478;51.462;7.338;2023-07-09T05:35:09;24.10;99.30
6879;DHT22;3478;51.462;7.338;2023-07-09T05:40:12;24.30;98.30
6879;DHT22;3478;51.462;7.338;2023-07-09T05:45:14;24.50;98.10
6879;DHT22;3478;51.462;7.338;2023-07-09T05:50:16;24.70;98.20
6879;DHT22;3478;51.462;7.338;2023-07-09T05:55:20;24.90;98.40
6879;DHT22;3478;51.462;7.338;2023-07-09T06:00:22;25.00;98.40
6879;DHT22;3478;51.462;7.338;2023-07-09T06:05:24;25.20;97.20
6879;DHT22;3478;51.462;7.338;2023-07-09T06:10:27;25.40;96.40
6879;DHT22;3478;51.462;7.338;2023-07-09T06:15:30;25.50;96.30
6879;DHT22;3478;51.462;7.338;2023-07-09T06:20:32;25.70;95.40
6879;DHT22;3478;51.462;7.338;2023-07-09T06:25:38;25.70;95.00
6879;DHT22;3478;51.462;7.338;2023-07-09T06:30:39;25.70;95.00
6879;DHT22;3478;51.462;7.338;2023-07-09T06:35:47;25.80;94.50
6879;DHT22;3478;51.462;7.338;2023-07-09T06:40:51;26.00;95.00
6879;DHT22;3478;51.462;7.338;2023-07-09T06:45:55;26.10;94.10
6879;DHT22;3478;51.462;7.338;2023-07-09T06:50:58;26.20;94.50
6879;DHT22;3478;51.462;7.338;2023-07-09T06:56:02;26.50;94.90
6879;DHT22;3478;51.462;7.338;2023-07-09T07:01:04;26.60;94.10
6879;DHT22;3478;51.462;7.338;2023-07-09T07:06:06;26.70;94.10
6879;DHT22;3478;51.462;7.338;2023-07-09T07:11:10;26.70;93.20
6879;DHT22;3478;51.462;7.338;2023-07-09T07:16:12;26.70;93.00
6879;DHT22;3478;51.462;7.338;2023-07-09T07:21:14;26.90;93.20
6879;DHT22;3478;51.462;7.338;2023-07-09T07:26:17;27.10;93.40
6879;DHT22;3478;51.462;7.338;2023-07-09T07:31:19;27.30;93.50
6879;DHT22;3478;51.462;7.338;2023-07-09T07:36:21;27.40;94.00
6879;DHT22;3478;51.462;7.338;2023-07-09T07:41:25;27.60;93.70
6879;DHT22;3478;51.462;7.338;2023-07-09T07:46:27;27.70;92.70
6879;DHT22;3478;51.462;7.338;2023-07-09T07:51:29;27.90;93.90
6879;DHT22;3478;51.462;7.338;2023-07-09T07:56:32;28.10;94.10
6879;DHT22;3478;51.462;7.338;2023-07-09T08:01:34;28.20;93.20
6879;DHT22;3478;51.462;7.338;2023-07-09T08:06:36;28.20;91.30
6879;DHT22;3478;51.462;7.338;2023-07-09T08:11:39;28.40;91.20
6879;DHT22;3478;51.462;7.338;2023-07-09T08:16:41;28.60;92.10
6879;DHT22;3478;51.462;7.338;2023-07-09T08:21:43;28.80;91.60
6879;DHT22;3478;51.462;7.338;2023-07-09T08:26:46;29.10;92.20
6879;DHT22;3478;51.462;7.338;2023-07-09T08:31:48;29.30;90.60
6879;DHT22;3478;51.462;7.338;2023-07-09T08:36:50;29.40;87.40
6879;DHT22;3478;51.462;7.338;2023-07-09T08:41:57;29.60;88.70
6879;DHT22;3478;51.462;7.338;2023-07-09T08:47:07;29.80;84.90
6879;DHT22;3478;51.462;7.338;2023-07-09T08:52:17;29.90;84.30
6879;DHT22;3478;51.462;7.338;2023-07-09T08:57:26;30.20;88.00
6879;DHT22;3478;51.462;7.338;2023-07-09T09:02:33;30.50;83.80
6879;DHT22;3478;51.462;7.338;2023-07-09T09:07:39;30.80;81.40
6879;DHT22;3478;51.462;7.338;2023-07-09T09:12:53;31.20;77.90
6879;DHT22;3478;51.462;7.338;2023-07-09T09:18:17;31.60;75.60
6879;DHT22;3478;51.462;7.338;2023-07-09T09:23:21;32.00;81.40
6879;DHT22;3478;51.462;7.338;2023-07-09T09:28:26;32.50;75.10
6879;DHT22;3478;51.462;7.338;2023-07-09T09:33:37;32.50;69.90
6879;DHT22;3478;51.462;7.338;2023-07-09T09:38:42;33.00;72.90
6879;DHT22;3478;51.462;7.338;2023-07-09T09:43:50;33.60;72.00
6879;DHT22;3478;51.462;7.338;2023-07-09T09:48:55;34.10;66.60
6879;DHT22;3478;51.462;7.338;2023-07-09T09:54:00;34.40;68.40
6879;DHT22;3478;51.462;7.338;2023-07-09T09:59:04;34.90;62.30
6879;DHT22;3478;51.462;7.338;2023-07-09T10:04:09;34.60;67.50
6879;DHT22;3478;51.462;7.338;2023-07-09T10:09:18;35.20;68.30
6879;DHT22;3478;51.462;7.338;2023-07-09T10:14:32;35.50;59.90
6879;DHT22;3478;51.462;7.338;2023-07-09T10:19:42;35.70;59.20
6879;DHT22;3478;51.462;7.338;2023-07-09T10:24:54;36.30;58.50
6879;DHT22;3478;51.462;7.338;2023-07-09T10:30:14;36.60;58.00
6879;DHT22;3478;51.462;7.338;2023-07-09T10:35:23;36.10;55.70
6879;DHT22;3478;51.462;7.338;2023-07-09T10:40:31;36.20;57.60
6879;DHT22;3478;51.462;7.338;2023-07-09T10:45:42;36.90;55.50
6879;DHT22;3478;51.462;7.338;2023-07-09T10:50:47;37.30;54.50
6879;DHT22;3478;51.462;7.338;2023-07-09T10:55:53;37.40;54.50
6879;DHT22;3478;51.462;7.338;2023-07-09T11:00:59;37.80;52.70
6879;DHT22;3478;51.462;7.338;2023-07-09T11:06:01;37.90;50.60
6879;DHT22;3478;51.462;7.338;2023-07-09T11:11:08;37.90;52.30
6879;DHT22;3478;51.462;7.338;2023-07-09T11:16:15;38.60;50.40
6879;DHT22;3478;51.462;7.338;2023-07-09T11:21:21;39.10;49.00
6879;DHT22;3478;51.462;7.338;2023-07-09T11:26:24;39.40;49.10
6879;DHT22;3478;51.462;7.338;2023-07-09T11:31:36;39.40;48.90
6879;DHT22;3478;51.462;7.338;2023-07-09T11:36:48;39.30;47.00
6879;DHT22;3478;51.462;7.338;2023-07-09T11:41:50;39.60;46.20
6879;DHT22;3478;51.462;7.338;2023-07-09T11:47:17;39.80;49.50
6879;DHT22;3478;51.462;7.338;2023-07-09T11:52:25;39.90;43.90
6879;DHT22;3478;51.462;7.338;2023-07-09T11:57:29;39.40;44.10
6879;DHT22;3478;51.462;7.338;2023-07-09T12:02:33;39.40;42.80
6879;DHT22;3478;51.462;7.338;2023-07-09T12:07:36;39.30;43.70
6879;DHT22;3478;51.462;7.338;2023-07-09T12:12:42;38.50;44.10
6879;DHT22;3478;51.462;7.338;2023-07-09T12:17:52;38.80;46.30
6879;DHT22;3478;51.462;7.338;2023-07-09T12:22:54;39.60;42.00
6879;DHT22;3478;51.462;7.338;2023-07-09T12:27:57;38.70;43.90
6879;DHT22;3478;51.462;7.338;2023-07-09T12:33:06;39.40;45.00
6879;DHT22;3478;51.462;7.338;2023-07-09T12:38:17;38.90;43.40
6879;DHT22;3478;51.462;7.338;2023-07-09T12:43:23;39.10;42.40
6879;DHT22;3478;51.462;7.338;2023-07-09T12:48:29;40.20;43.80
6879;DHT22;3478;51.462;7.338;2023-07-09T12:53:31;40.30;42.40
6879;DHT22;3478;51.462;7.338;2023-07-09T12:58:37;40.00;41.90
6879;DHT22;3478;51.462;7.338;2023-07-09T13:03:40;40.00;41.20
6879;DHT22;3478;51.462;7.338;2023-07-09T13:08:43;39.70;41.90
6879;DHT22;3478;51.462;7.338;2023-07-09T13:13:54;39.40;40.00
6879;DHT22;3478;51.462;7.338;2023-07-09T13:18:58;39.80;40.90
6879;DHT22;3478;51.462;7.338;2023-07-09T13:24:00;39.60;40.60
6879;DHT22;3478;51.462;7.338;2023-07-09T13:29:02;38.90;42.00
6879;DHT22;3478;51.462;7.338;2023-07-09T13:34:17;38.60;42.70
6879;DHT22;3478;51.462;7.338;2023-07-09T13:39:20;38.40;42.70
6879;DHT22;3478;51.462;7.338;2023-07-09T13:44:23;38.10;42.80
6879;DHT22;3478;51.462;7.338;2023-07-09T13:49:28;37.60;45.00
6879;DHT22;3478;51.462;7.338;2023-07-09T13:54:31;36.80;49.30
6879;DHT22;3478;51.462;7.338;2023-07-09T13:59:36;36.20;48.60
6879;DHT22;3478;51.462;7.338;2023-07-09T14:04:39;35.80;51.00
6879;DHT22;3478;51.462;7.338;2023-07-09T14:09:40;35.40;50.00
6879;DHT22;3478;51.462;7.338;2023-07-09T14:14:42;35.00;52.50
6879;DHT22;3478;51.462;7.338;2023-07-09T14:19:47;34.50;50.30
6879;DHT22;3478;51.462;7.338;2023-07-09T14:24:48;34.00;53.80
6879;DHT22;3478;51.462;7.338;2023-07-09T14:29:50;33.50;53.10
6879;DHT22;3478;51.462;7.338;2023-07-09T14:34:53;33.10;53.60
6879;DHT22;3478;51.462;7.338;2023-07-09T14:39:55;32.80;53.40
6879;DHT22;3478;51.462;7.338;2023-07-09T14:44:58;32.60;53.50
6879;DHT22;3478;51.462;7.338;2023-07-09T14:50:01;32.30;54.60
6879;DHT22;3478;51.462;7.338;2023-07-09T14:55:03;32.10;55.00
6879;DHT22;3478;51.462;7.338;2023-07-09T15:00:13;31.90;55.80
6879;DHT22;3478;51.462;7.338;2023-07-09T15:05:18;31.80;56.70
6879;DHT22;3478;51.462;7.338;2023-07-09T15:10:36;30.60;61.10
6879;DHT22;3478;51.462;7.338;2023-07-09T15:15:37;29.20;69.40
6879;DHT22;3478;51.462;7.338;2023-07-09T15:20:42;26.40;99.90
6879;DHT22;3478;51.462;7.338;2023-07-09T15:25:45;24.20;99.90
6879;DHT22;3478;51.462;7.338;2023-07-09T15:30:47;23.20;99.90
6879;DHT22;3478;51.462;7.338;2023-07-09T15:35:49;22.70;99.90
6879;DHT22;3478;51.462;7.338;2023-07-09T15:40:53;22.20;99.90
6879;DHT22;3478;51.462;7.338;2023-07-09T15:45:56;22.10;99.90
6879;DHT22;3478;51.462;7.338;2023-07-09T15:50:58;22.30;99.90
6879;DHT22;3478;51.462;7.338;2023-07-09T15:56:04;22.30;99.90
6879;DHT22;3478;51.462;7.338;2023-07-09T16:01:09;22.40;99.90
6879;DHT22;3478;51.462;7.338;2023-07-09T16:06:11;22.40;99.90
6879;DHT22;3478;51.462;7.338;2023-07-09T16:11:16;22.30;99.90
6879;DHT22;3478;51.462;7.338;2023-07-09T16:16:20;22.30;99.90
6879;DHT22;3478;51.462;7.338;2023-07-09T16:21:27;22.30;99.90
6879;DHT22;3478;51.462;7.338;2023-07-09T16:26:32;22.30;99.90
6879;DHT22;3478;51.462;7.338;2023-07-09T16:31:34;22.20;99.90
6879;DHT22;3478;51.462;7.338;2023-07-09T16:36:36;22.30;99.90
6879;DHT22;3478;51.462;7.338;2023-07-09T16:41:39;22.50;99.90
6879;DHT22;3478;51.462;7.338;2023-07-09T16:46:41;22.60;99.90
6879;DHT22;3478;51.462;7.338;2023-07-09T16:51:43;22.70;99.90
6879;DHT22;3478;51.462;7.338;2023-07-09T16:56:46;22.80;99.90
6879;DHT22;3478;51.462;7.338;2023-07-09T17:01:48;23.00;99.90
6879;DHT22;3478;51.462;7.338;2023-07-09T17:06:51;23.20;99.90
6879;DHT22;3478;51.462;7.338;2023-07-09T17:11:57;23.40;99.90
6879;DHT22;3478;51.462;7.338;2023-07-09T17:17:00;23.60;99.90
6879;DHT22;3478;51.462;7.338;2023-07-09T17:22:07;23.80;99.90
6879;DHT22;3478;51.462;7.338;2023-07-09T17:27:17;23.70;99.90
6879;DHT22;3478;51.462;7.338;2023-07-09T17:32:19;23.90;99.90
6879;DHT22;3478;51.462;7.338;2023-07-09T17:37:21;24.10;99.90
6879;DHT22;3478;51.462;7.338;2023-07-09T17:42:24;24.10;99.90
6879;DHT22;3478;51.462;7.338;2023-07-09T17:47:26;24.20;99.90
6879;DHT22;3478;51.462;7.338;2023-07-09T17:52:28;24.40;99.90
6879;DHT22;3478;51.462;7.338;2023-07-09T17:57:32;24.50;99.90
6879;DHT22;3478;51.462;7.338;2023-07-09T18:02:36;24.90;99.90
6879;DHT22;3478;51.462;7.338;2023-07-09T18:07:39;25.10;99.90
6879;DHT22;3478;51.462;7.338;2023-07-09T18:12:42;24.50;99.90
6879;DHT22;3478;51.462;7.338;2023-07-09T18:17:44;24.50;99.90
6879;DHT22;3478;51.462;7.338;2023-07-09T18:22:46;24.30;99.90
6879;DHT22;3478;51.462;7.338;2023-07-09T18:27:52;24.00;99.90
6879;DHT22;3478;51.462;7.338;2023-07-09T18:32:56;23.80;99.90
6879;DHT22;3478;51.462;7.338;2023-07-09T18:37:59;23.60;99.90
6879;DHT22;3478;51.462;7.338;2023-07-09T18:43:07;23.40;99.90
6879;DHT22;3478;51.462;7.338;2023-07-09T18:48:13;23.40;99.90
6879;DHT22;3478;51.462;7.338;2023-07-09T18:53:16;23.30;99.90
6879;DHT22;3478;51.462;7.338;2023-07-09T18:58:21;23.40;99.90
6879;DHT22;3478;51.462;7.338;2023-07-09T19:03:33;23.40;99.90
6879;DHT22;3478;51.462;7.338;2023-07-09T19:08:36;23.40;99.90
6879;DHT22;3478;51.462;7.338;2023-07-09T19:13:42;23.50;99.90
6879;DHT22;3478;51.462;7.338;2023-07-09T19:18:44;23.40;99.90
6879;DHT22;3478;51.462;7.338;2023-07-09T19:23:46;23.40;99.90
6879;DHT22;3478;51.462;7.338;2023-07-09T19:28:49;23.30;99.90
6879;DHT22;3478;51.462;7.338;2023-07-09T19:33:51;23.30;99.90
6879;DHT22;3478;51.462;7.338;2023-07-09T19:38:54;23.20;99.90
6879;DHT22;3478;51.462;7.338;2023-07-09T19:43:57;23.20;99.90
6879;DHT22;3478;51.462;7.338;2023-07-09T19:48:59;23.20;99.90
6879;DHT22;3478;51.462;7.338;2023-07-09T19:54:01;23.20;99.90
6879;DHT22;3478;51.462;7.338;2023-07-09T19:59:04;23.20;99.90
6879;DHT22;3478;51.462;7.338;2023-07-09T20:04:08;23.10;99.90
6879;DHT22;3478;51.462;7.338;2023-07-09T20:09:12;23.10;99.90
6879;DHT22;3478;51.462;7.338;2023-07-09T20:14:17;23.00;99.90
6879;DHT22;3478;51.462;7.338;2023-07-09T20:19:20;23.00;99.90
6879;DHT22;3478;51.462;7.338;2023-07-09T20:24:22;22.90;99.90
6879;DHT22;3478;51.462;7.338;2023-07-09T20:29:25;22.80;99.90
6879;DHT22;3478;51.462;7.338;2023-07-09T20:34:27;22.80;99.90
6879;DHT22;3478;51.462;7.338;2023-07-09T20:39:29;22.70;99.90
6879;DHT22;3478;51.462;7.338;2023-07-09T20:44:35;22.70;99.90
6879;DHT22;3478;51.462;7.338;2023-07-09T20:49:37;22.60;99.90
6879;DHT22;3478;51.462;7.338;2023-07-09T20:54:39;22.60;99.90
6879;DHT22;3478;51.462;7.338;2023-07-09T20:59:43;22.40;99.90
6879;DHT22;3478;51.462;7.338;2023-07-09T21:04:45;22.40;99.90
6879;DHT22;3478;51.462;7.338;2023-07-09T21:09:47;22.30;99.90
6879;DHT22;3478;51.462;7.338;2023-07-09T21:14:50;22.30;99.90
6879;DHT22;3478;51.462;7.338;2023-07-09T21:19:53;22.30;99.90
6879;DHT22;3478;51.462;7.338;2023-07-09T21:24:56;22.20;99.90
6879;DHT22;3478;51.462;7.338;2023-07-09T21:30:00;22.30;99.90
6879;DHT22;3478;51.462;7.338;2023-07-09T21:35:01;22.30;99.90
6879;DHT22;3478;51.462;7.338;2023-07-09T21:40:26;22.30;99.90
6879;DHT22;3478;51.462;7.338;2023-07-09T21:45:33;22.30;99.90
6879;DHT22;3478;51.462;7.338;2023-07-09T21:50:35;22.30;99.90
6879;DHT22;3478;51.462;7.338;2023-07-09T21:55:37;22.20;99.90
6879;DHT22;3478;51.462;7.338;2023-07-09T22:00:40;22.20;99.90
6879;DHT22;3478;51.462;7.338;2023-07-09T22:05:43;22.20;99.90
6879;DHT22;3478;51.462;7.338;2023-07-09T22:10:46;22.10;99.90
6879;DHT22;3478;51.462;7.338;2023-07-09T22:15:49;22.10;99.90
6879;DHT22;3478;51.462;7.338;2023-07-09T22:20:51;21.90;99.90
6879;DHT22;3478;51.462;7.338;2023-07-09T22:25:53;21.70;99.90
6879;DHT22;3478;51.462;7.338;2023-07-09T22:30:56;21.70;99.90
6879;DHT22;3478;51.462;7.338;2023-07-09T22:35:58;21.70;99.90
6879;DHT22;3478;51.462;7.338;2023-07-09T22:41:00;21.70;99.90
6879;DHT22;3478;51.462;7.338;2023-07-09T22:46:04;21.70;99.90
6879;DHT22;3478;51.462;7.338;2023-07-09T22:51:07;21.50;99.90
6879;DHT22;3478;51.462;7.338;2023-07-09T22:56:09;21.40;99.90
6879;DHT22;3478;51.462;7.338;2023-07-09T23:01:15;21.40;99.90
6879;DHT22;3478;51.462;7.338;2023-07-09T23:06:20;21.30;99.90
6879;DHT22;3478;51.462;7.338;2023-07-09T23:11:25;21.20;99.90
6879;DHT22;3478;51.462;7.338;2023-07-09T23:16:30;21.10;99.90
6879;DHT22;3478;51.462;7.338;2023-07-09T23:21:32;21.10;99.90
6879;DHT22;3478;51.462;7.338;2023-07-09T23:26:41;21.10;99.90
6879;DHT22;3478;51.462;7.338;2023-07-09T23:31:48;21.10;99.90
6879;DHT22;3478;51.462;7.338;2023-07-09T23:36:50;21.00;99.90
6879;DHT22;3478;51.462;7.338;2023-07-09T23:41:52;21.10;99.90
6879;DHT22;3478;51.462;7.338;2023-07-09T23:46:57;21.10;99.90
6879;DHT22;3478;51.462;7.338;2023-07-09T23:51:59;21.10;99.90
6879;DHT22;3478;51.462;7.338;2023-07-09T23:57:01;21.10;99.90
